Madoi, China
Current Conditions -  °F | °C
As of 10:00 PM on Sunday 21 Dec 2014 (Local Time) from ZLLL Reporting Station
Smoke Smoke  
Wind Chill: -2°   Ceiling: Unl
Heat Index:   Visibility: 3mi
Dew Point: -2°   Wind: 7mph
Humidity: 62%   Direction: 310°NW
Pressure: 30.18"   Gusts: NA
Location:  34.92°N, 98.22°E
Report Text: ZLLL 211400Z 31003MPS 5000 FU NSC M13/M19 Q1022 NOSIG
Loading
Personal Weather Stations






























Interactive Weather Map New forecast layout! Learn more

10-Day Weather Forecast

Advertisements
Track Severe Weather on mobile